sensor_id;sensor_type;location;lat;lon;timestamp;P1;durP1;ratioP1;P2;durP2;ratioP2
51746;SDS011;37825;40.088;18.302;2022-08-03T00:01:38;8.38;;;3.92;;
51746;SDS011;37825;40.088;18.302;2022-08-03T00:04:07;4.28;;;2.90;;
51746;SDS011;37825;40.088;18.302;2022-08-03T00:06:36;4.82;;;3.30;;
51746;SDS011;37825;40.088;18.302;2022-08-03T00:09:04;5.38;;;4.28;;
51746;SDS011;37825;40.088;18.302;2022-08-03T00:11:33;4.97;;;2.60;;
51746;SDS011;37825;40.088;18.302;2022-08-03T00:14:03;7.35;;;2.72;;
51746;SDS011;37825;40.088;18.302;2022-08-03T00:16:32;5.38;;;2.72;;
51746;SDS011;37825;40.088;18.302;2022-08-03T00:19:00;7.68;;;2.40;;
51746;SDS011;37825;40.088;18.302;2022-08-03T00:21:29;5.07;;;3.08;;
51746;SDS011;37825;40.088;18.302;2022-08-03T00:23:58;8.45;;;5.10;;
51746;SDS011;37825;40.088;18.302;2022-08-03T00:26:27;4.65;;;3.83;;
51746;SDS011;37825;40.088;18.302;2022-08-03T00:28:56;4.65;;;3.42;;
51746;SDS011;37825;40.088;18.302;2022-08-03T00:31:24;6.45;;;2.85;;
51746;SDS011;37825;40.088;18.302;2022-08-03T00:33:52;6.65;;;2.75;;
51746;SDS011;37825;40.088;18.302;2022-08-03T00:36:20;6.18;;;4.90;;
51746;SDS011;37825;40.088;18.302;2022-08-03T00:38:49;6.65;;;2.95;;
51746;SDS011;37825;40.088;18.302;2022-08-03T00:41:17;4.97;;;2.42;;
51746;SDS011;37825;40.088;18.302;2022-08-03T00:43:45;4.70;;;2.97;;
51746;SDS011;37825;40.088;18.302;2022-08-03T00:46:13;4.88;;;2.40;;
51746;SDS011;37825;40.088;18.302;2022-08-03T00:48:45;7.82;;;2.92;;
51746;SDS011;37825;40.088;18.302;2022-08-03T00:51:14;3.97;;;2.40;;
51746;SDS011;37825;40.088;18.302;2022-08-03T00:56:39;6.72;;;2.72;;
51746;SDS011;37825;40.088;18.302;2022-08-03T00:59:08;5.53;;;2.40;;
51746;SDS011;37825;40.088;18.302;2022-08-03T01:01:37;5.70;;;3.30;;
51746;SDS011;37825;40.088;18.302;2022-08-03T01:04:05;4.20;;;2.60;;
51746;SDS011;37825;40.088;18.302;2022-08-03T01:11:54;3.45;;;2.30;;
51746;SDS011;37825;40.088;18.302;2022-08-03T01:14:33;6.90;;;2.78;;
51746;SDS011;37825;40.088;18.302;2022-08-03T01:17:18;4.35;;;2.30;;
51746;SDS011;37825;40.088;18.302;2022-08-03T01:20:07;3.08;;;2.25;;
51746;SDS011;37825;40.088;18.302;2022-08-03T01:22:44;4.65;;;2.80;;
51746;SDS011;37825;40.088;18.302;2022-08-03T01:30:24;7.00;;;2.60;;
51746;SDS011;37825;40.088;18.302;2022-08-03T01:32:57;4.20;;;2.30;;
51746;SDS011;37825;40.088;18.302;2022-08-03T01:35:31;6.40;;;2.45;;
51746;SDS011;37825;40.088;18.302;2022-08-03T01:38:01;4.35;;;2.03;;
51746;SDS011;37825;40.088;18.302;2022-08-03T01:40:30;4.10;;;2.70;;
51746;SDS011;37825;40.088;18.302;2022-08-03T01:43:01;7.45;;;2.72;;
51746;SDS011;37825;40.088;18.302;2022-08-03T01:45:30;5.88;;;2.42;;
51746;SDS011;37825;40.088;18.302;2022-08-03T01:47:58;5.65;;;2.55;;
51746;SDS011;37825;40.088;18.302;2022-08-03T01:50:28;5.13;;;2.70;;
51746;SDS011;37825;40.088;18.302;2022-08-03T01:52:57;4.32;;;2.53;;
51746;SDS011;37825;40.088;18.302;2022-08-03T01:55:27;4.93;;;2.63;;
51746;SDS011;37825;40.088;18.302;2022-08-03T01:57:55;7.10;;;2.22;;
51746;SDS011;37825;40.088;18.302;2022-08-03T02:00:25;7.22;;;2.90;;
51746;SDS011;37825;40.088;18.302;2022-08-03T02:02:54;5.15;;;1.92;;
51746;SDS011;37825;40.088;18.302;2022-08-03T02:05:22;4.72;;;2.13;;
51746;SDS011;37825;40.088;18.302;2022-08-03T02:07:51;5.70;;;2.40;;
51746;SDS011;37825;40.088;18.302;2022-08-03T02:10:20;3.15;;;2.03;;
51746;SDS011;37825;40.088;18.302;2022-08-03T02:12:49;5.47;;;2.40;;
51746;SDS011;37825;40.088;18.302;2022-08-03T02:15:19;8.88;;;2.60;;
51746;SDS011;37825;40.088;18.302;2022-08-03T02:17:48;7.50;;;3.25;;
51746;SDS011;37825;40.088;18.302;2022-08-03T02:20:16;3.30;;;2.15;;
51746;SDS011;37825;40.088;18.302;2022-08-03T02:22:46;4.32;;;2.30;;
51746;SDS011;37825;40.088;18.302;2022-08-03T02:25:14;3.50;;;2.35;;
51746;SDS011;37825;40.088;18.302;2022-08-03T02:27:54;8.43;;;2.90;;
51746;SDS011;37825;40.088;18.302;2022-08-03T02:30:25;6.05;;;2.30;;
51746;SDS011;37825;40.088;18.302;2022-08-03T02:32:56;6.78;;;2.78;;
51746;SDS011;37825;40.088;18.302;2022-08-03T02:35:27;4.00;;;2.37;;
51746;SDS011;37825;40.088;18.302;2022-08-03T02:37:59;7.75;;;2.70;;
51746;SDS011;37825;40.088;18.302;2022-08-03T02:40:28;6.55;;;2.88;;
51746;SDS011;37825;40.088;18.302;2022-08-03T02:43:07;4.63;;;2.58;;
51746;SDS011;37825;40.088;18.302;2022-08-03T02:45:41;4.00;;;2.35;;
51746;SDS011;37825;40.088;18.302;2022-08-03T02:48:11;9.93;;;6.80;;
51746;SDS011;37825;40.088;18.302;2022-08-03T02:50:43;10.30;;;3.65;;
51746;SDS011;37825;40.088;18.302;2022-08-03T02:53:12;4.25;;;3.20;;
51746;SDS011;37825;40.088;18.302;2022-08-03T02:55:41;4.50;;;2.75;;
51746;SDS011;37825;40.088;18.302;2022-08-03T02:58:10;7.15;;;3.63;;
51746;SDS011;37825;40.088;18.302;2022-08-03T03:00:39;8.45;;;3.10;;
51746;SDS011;37825;40.088;18.302;2022-08-03T03:03:09;4.10;;;2.55;;
51746;SDS011;37825;40.088;18.302;2022-08-03T03:05:37;5.03;;;2.88;;
51746;SDS011;37825;40.088;18.302;2022-08-03T03:08:07;5.93;;;2.67;;
51746;SDS011;37825;40.088;18.302;2022-08-03T03:10:36;5.40;;;2.88;;
51746;SDS011;37825;40.088;18.302;2022-08-03T03:13:04;4.43;;;2.80;;
51746;SDS011;37825;40.088;18.302;2022-08-03T03:15:33;6.90;;;2.90;;
51746;SDS011;37825;40.088;18.302;2022-08-03T03:18:04;10.32;;;3.08;;
51746;SDS011;37825;40.088;18.302;2022-08-03T03:20:32;6.15;;;3.05;;
51746;SDS011;37825;40.088;18.302;2022-08-03T03:23:01;10.90;;;8.50;;
51746;SDS011;37825;40.088;18.302;2022-08-03T03:25:31;8.60;;;6.93;;
51746;SDS011;37825;40.088;18.302;2022-08-03T03:27:59;11.23;;;5.68;;
51746;SDS011;37825;40.088;18.302;2022-08-03T03:30:28;4.72;;;3.60;;
51746;SDS011;37825;40.088;18.302;2022-08-03T03:32:57;9.38;;;3.50;;
51746;SDS011;37825;40.088;18.302;2022-08-03T03:35:25;10.70;;;3.97;;
51746;SDS011;37825;40.088;18.302;2022-08-03T03:37:54;6.32;;;3.45;;
51746;SDS011;37825;40.088;18.302;2022-08-03T03:40:22;8.70;;;3.47;;
51746;SDS011;37825;40.088;18.302;2022-08-03T03:42:51;5.57;;;3.25;;
51746;SDS011;37825;40.088;18.302;2022-08-03T03:45:20;8.70;;;3.70;;
51746;SDS011;37825;40.088;18.302;2022-08-03T03:47:48;8.70;;;4.07;;
51746;SDS011;37825;40.088;18.302;2022-08-03T03:50:17;6.80;;;3.47;;
51746;SDS011;37825;40.088;18.302;2022-08-03T03:52:46;8.93;;;4.57;;
51746;SDS011;37825;40.088;18.302;2022-08-03T03:55:14;9.18;;;4.13;;
51746;SDS011;37825;40.088;18.302;2022-08-03T03:57:43;8.20;;;4.30;;
51746;SDS011;37825;40.088;18.302;2022-08-03T04:00:12;7.70;;;4.65;;
51746;SDS011;37825;40.088;18.302;2022-08-03T04:02:41;11.63;;;7.65;;
51746;SDS011;37825;40.088;18.302;2022-08-03T04:05:09;10.57;;;6.43;;
51746;SDS011;37825;40.088;18.302;2022-08-03T04:07:57;6.78;;;5.18;;
51746;SDS011;37825;40.088;18.302;2022-08-03T04:10:46;10.13;;;4.32;;
51746;SDS011;37825;40.088;18.302;2022-08-03T04:13:37;8.77;;;3.45;;
51746;SDS011;37825;40.088;18.302;2022-08-03T04:16:08;7.22;;;3.35;;
51746;SDS011;37825;40.088;18.302;2022-08-03T04:18:37;9.65;;;4.72;;
51746;SDS011;37825;40.088;18.302;2022-08-03T04:21:08;8.70;;;3.97;;
51746;SDS011;37825;40.088;18.302;2022-08-03T04:23:40;7.93;;;4.22;;
51746;SDS011;37825;40.088;18.302;2022-08-03T04:26:11;7.60;;;3.53;;
51746;SDS011;37825;40.088;18.302;2022-08-03T04:28:41;6.05;;;3.80;;
51746;SDS011;37825;40.088;18.302;2022-08-03T04:31:12;5.10;;;3.42;;
51746;SDS011;37825;40.088;18.302;2022-08-03T04:33:42;7.65;;;3.33;;
51746;SDS011;37825;40.088;18.302;2022-08-03T04:36:13;6.22;;;3.00;;
51746;SDS011;37825;40.088;18.302;2022-08-03T04:39:25;6.25;;;3.15;;
51746;SDS011;37825;40.088;18.302;2022-08-03T04:41:34;9.05;;;3.22;;
51746;SDS011;37825;40.088;18.302;2022-08-03T04:44:03;8.82;;;3.28;;
51746;SDS011;37825;40.088;18.302;2022-08-03T04:46:33;5.82;;;2.90;;
51746;SDS011;37825;40.088;18.302;2022-08-03T04:49:02;5.85;;;2.80;;
51746;SDS011;37825;40.088;18.302;2022-08-03T04:51:31;12.55;;;3.67;;
51746;SDS011;37825;40.088;18.302;2022-08-03T04:54:04;4.05;;;2.83;;
51746;SDS011;37825;40.088;18.302;2022-08-03T04:56:33;7.65;;;3.13;;
51746;SDS011;37825;40.088;18.302;2022-08-03T04:59:02;8.57;;;3.08;;
51746;SDS011;37825;40.088;18.302;2022-08-03T05:01:30;12.20;;;3.00;;
51746;SDS011;37825;40.088;18.302;2022-08-03T05:03:59;6.18;;;2.50;;
51746;SDS011;37825;40.088;18.302;2022-08-03T05:06:27;10.35;;;3.38;;
51746;SDS011;37825;40.088;18.302;2022-08-03T05:08:55;6.95;;;3.10;;
51746;SDS011;37825;40.088;18.302;2022-08-03T05:11:24;9.43;;;3.25;;
51746;SDS011;37825;40.088;18.302;2022-08-03T05:13:53;8.40;;;3.42;;
51746;SDS011;37825;40.088;18.302;2022-08-03T05:16:21;13.63;;;3.78;;
51746;SDS011;37825;40.088;18.302;2022-08-03T05:18:52;5.82;;;3.30;;
51746;SDS011;37825;40.088;18.302;2022-08-03T05:21:20;8.52;;;3.05;;
51746;SDS011;37825;40.088;18.302;2022-08-03T05:23:48;7.00;;;3.40;;
51746;SDS011;37825;40.088;18.302;2022-08-03T05:26:17;11.50;;;3.25;;
51746;SDS011;37825;40.088;18.302;2022-08-03T05:28:47;7.33;;;3.73;;
51746;SDS011;37825;40.088;18.302;2022-08-03T05:31:15;9.75;;;3.33;;
51746;SDS011;37825;40.088;18.302;2022-08-03T05:33:44;10.48;;;3.35;;
51746;SDS011;37825;40.088;18.302;2022-08-03T05:36:14;7.70;;;3.25;;
51746;SDS011;37825;40.088;18.302;2022-08-03T05:38:42;12.10;;;3.95;;
51746;SDS011;37825;40.088;18.302;2022-08-03T05:41:11;11.57;;;4.10;;
51746;SDS011;37825;40.088;18.302;2022-08-03T05:43:39;8.98;;;3.65;;
51746;SDS011;37825;40.088;18.302;2022-08-03T05:46:08;8.07;;;3.50;;
51746;SDS011;37825;40.088;18.302;2022-08-03T05:48:36;5.90;;;2.60;;
51746;SDS011;37825;40.088;18.302;2022-08-03T05:51:05;6.20;;;2.95;;
51746;SDS011;37825;40.088;18.302;2022-08-03T05:53:37;9.20;;;3.03;;
51746;SDS011;37825;40.088;18.302;2022-08-03T05:56:06;9.85;;;3.03;;
51746;SDS011;37825;40.088;18.302;2022-08-03T05:58:34;5.13;;;2.00;;
51746;SDS011;37825;40.088;18.302;2022-08-03T06:01:02;7.63;;;2.88;;
51746;SDS011;37825;40.088;18.302;2022-08-03T06:03:31;6.15;;;2.20;;
51746;SDS011;37825;40.088;18.302;2022-08-03T06:05:59;5.03;;;2.72;;
51746;SDS011;37825;40.088;18.302;2022-08-03T06:08:28;8.98;;;2.33;;
51746;SDS011;37825;40.088;18.302;2022-08-03T06:10:56;9.30;;;2.85;;
51746;SDS011;37825;40.088;18.302;2022-08-03T06:13:25;4.03;;;2.08;;
51746;SDS011;37825;40.088;18.302;2022-08-03T06:15:53;8.10;;;2.58;;
51746;SDS011;37825;40.088;18.302;2022-08-03T06:18:22;5.35;;;2.00;;
51746;SDS011;37825;40.088;18.302;2022-08-03T06:20:51;4.25;;;2.15;;
51746;SDS011;37825;40.088;18.302;2022-08-03T06:23:19;4.90;;;2.50;;
51746;SDS011;37825;40.088;18.302;2022-08-03T06:25:48;5.28;;;2.25;;
51746;SDS011;37825;40.088;18.302;2022-08-03T06:28:16;4.43;;;2.30;;
51746;SDS011;37825;40.088;18.302;2022-08-03T06:31:01;5.93;;;1.85;;
51746;SDS011;37825;40.088;18.302;2022-08-03T06:33:30;5.30;;;1.90;;
51746;SDS011;37825;40.088;18.302;2022-08-03T06:35:59;4.47;;;2.35;;
51746;SDS011;37825;40.088;18.302;2022-08-03T06:38:27;7.68;;;2.92;;
51746;SDS011;37825;40.088;18.302;2022-08-03T06:40:56;4.50;;;2.15;;
51746;SDS011;37825;40.088;18.302;2022-08-03T06:43:24;4.97;;;2.10;;
51746;SDS011;37825;40.088;18.302;2022-08-03T06:45:52;4.10;;;2.08;;
51746;SDS011;37825;40.088;18.302;2022-08-03T06:48:20;5.78;;;2.35;;
51746;SDS011;37825;40.088;18.302;2022-08-03T06:50:49;6.13;;;2.53;;
51746;SDS011;37825;40.088;18.302;2022-08-03T06:53:17;3.63;;;2.58;;
51746;SDS011;37825;40.088;18.302;2022-08-03T06:55:46;4.72;;;2.35;;
51746;SDS011;37825;40.088;18.302;2022-08-03T06:58:17;3.85;;;2.20;;
51746;SDS011;37825;40.088;18.302;2022-08-03T07:00:45;4.75;;;2.20;;
51746;SDS011;37825;40.088;18.302;2022-08-03T07:03:13;3.03;;;2.08;;
51746;SDS011;37825;40.088;18.302;2022-08-03T07:05:42;4.18;;;2.53;;
51746;SDS011;37825;40.088;18.302;2022-08-03T07:08:14;4.00;;;2.22;;
51746;SDS011;37825;40.088;18.302;2022-08-03T07:10:43;2.60;;;2.15;;
51746;SDS011;37825;40.088;18.302;2022-08-03T07:13:11;4.15;;;2.58;;
51746;SDS011;37825;40.088;18.302;2022-08-03T07:15:40;2.53;;;1.85;;
51746;SDS011;37825;40.088;18.302;2022-08-03T07:18:08;5.82;;;2.55;;
51746;SDS011;37825;40.088;18.302;2022-08-03T07:20:37;2.10;;;1.90;;
51746;SDS011;37825;40.088;18.302;2022-08-03T07:23:05;8.57;;;2.50;;
51746;SDS011;37825;40.088;18.302;2022-08-03T07:25:33;6.55;;;2.33;;
51746;SDS011;37825;40.088;18.302;2022-08-03T07:28:01;4.47;;;2.50;;
51746;SDS011;37825;40.088;18.302;2022-08-03T07:30:30;5.07;;;2.63;;
51746;SDS011;37825;40.088;18.302;2022-08-03T07:32:58;5.85;;;2.67;;
51746;SDS011;37825;40.088;18.302;2022-08-03T07:35:27;4.00;;;2.20;;
51746;SDS011;37825;40.088;18.302;2022-08-03T07:37:56;8.40;;;2.42;;
51746;SDS011;37825;40.088;18.302;2022-08-03T07:40:24;7.53;;;2.97;;
51746;SDS011;37825;40.088;18.302;2022-08-03T07:42:52;7.07;;;1.95;;
51746;SDS011;37825;40.088;18.302;2022-08-03T07:45:20;4.03;;;2.25;;
51746;SDS011;37825;40.088;18.302;2022-08-03T07:47:49;5.57;;;2.40;;
51746;SDS011;37825;40.088;18.302;2022-08-03T07:50:19;3.30;;;2.20;;
51746;SDS011;37825;40.088;18.302;2022-08-03T07:52:47;3.50;;;2.15;;
51746;SDS011;37825;40.088;18.302;2022-08-03T07:55:17;6.65;;;2.20;;
51746;SDS011;37825;40.088;18.302;2022-08-03T07:57:47;4.90;;;2.50;;
51746;SDS011;37825;40.088;18.302;2022-08-03T08:00:26;4.40;;;2.72;;
51746;SDS011;37825;40.088;18.302;2022-08-03T08:02:54;3.47;;;2.40;;
51746;SDS011;37825;40.088;18.302;2022-08-03T08:05:23;4.60;;;2.03;;
51746;SDS011;37825;40.088;18.302;2022-08-03T08:07:51;5.88;;;1.98;;
51746;SDS011;37825;40.088;18.302;2022-08-03T08:10:19;3.35;;;1.88;;
51746;SDS011;37825;40.088;18.302;2022-08-03T08:12:48;3.75;;;2.05;;
51746;SDS011;37825;40.088;18.302;2022-08-03T08:15:16;6.38;;;2.53;;
51746;SDS011;37825;40.088;18.302;2022-08-03T08:17:46;4.40;;;1.92;;
51746;SDS011;37825;40.088;18.302;2022-08-03T08:20:16;4.55;;;1.80;;
51746;SDS011;37825;40.088;18.302;2022-08-03T08:22:44;2.80;;;1.88;;
51746;SDS011;37825;40.088;18.302;2022-08-03T08:25:12;3.08;;;2.17;;
51746;SDS011;37825;40.088;18.302;2022-08-03T08:27:42;4.30;;;2.20;;
51746;SDS011;37825;40.088;18.302;2022-08-03T08:30:11;3.03;;;2.05;;
51746;SDS011;37825;40.088;18.302;2022-08-03T08:32:42;8.52;;;2.35;;
51746;SDS011;37825;40.088;18.302;2022-08-03T08:35:10;1.88;;;1.40;;
51746;SDS011;37825;40.088;18.302;2022-08-03T08:37:39;4.88;;;2.00;;
51746;SDS011;37825;40.088;18.302;2022-08-03T08:40:09;6.40;;;2.20;;
51746;SDS011;37825;40.088;18.302;2022-08-03T08:42:41;3.13;;;2.13;;
51746;SDS011;37825;40.088;18.302;2022-08-03T08:45:17;3.20;;;2.28;;
51746;SDS011;37825;40.088;18.302;2022-08-03T08:47:47;5.43;;;1.95;;
51746;SDS011;37825;40.088;18.302;2022-08-03T08:50:17;5.47;;;2.35;;
51746;SDS011;37825;40.088;18.302;2022-08-03T08:55:18;3.22;;;2.35;;
51746;SDS011;37825;40.088;18.302;2022-08-03T08:57:47;4.50;;;2.55;;
51746;SDS011;37825;40.088;18.302;2022-08-03T09:00:16;3.33;;;1.80;;
51746;SDS011;37825;40.088;18.302;2022-08-03T09:02:44;2.60;;;1.95;;
51746;SDS011;37825;40.088;18.302;2022-08-03T09:05:16;6.05;;;2.70;;
51746;SDS011;37825;40.088;18.302;2022-08-03T09:07:45;4.50;;;2.25;;
51746;SDS011;37825;40.088;18.302;2022-08-03T09:10:14;4.97;;;2.08;;
51746;SDS011;37825;40.088;18.302;2022-08-03T09:12:48;5.15;;;2.58;;
51746;SDS011;37825;40.088;18.302;2022-08-03T09:15:21;4.53;;;2.65;;
51746;SDS011;37825;40.088;18.302;2022-08-03T09:17:52;3.95;;;1.70;;
51746;SDS011;37825;40.088;18.302;2022-08-03T09:20:22;5.43;;;2.58;;
51746;SDS011;37825;40.088;18.302;2022-08-03T09:22:57;5.20;;;2.60;;
51746;SDS011;37825;40.088;18.302;2022-08-03T09:28:16;4.60;;;2.03;;
51746;SDS011;37825;40.088;18.302;2022-08-03T09:30:56;4.15;;;3.03;;
51746;SDS011;37825;40.088;18.302;2022-08-03T09:33:25;6.68;;;2.85;;
51746;SDS011;37825;40.088;18.302;2022-08-03T09:35:53;5.55;;;2.70;;
51746;SDS011;37825;40.088;18.302;2022-08-03T09:38:23;5.43;;;2.47;;
51746;SDS011;37825;40.088;18.302;2022-08-03T09:40:53;7.15;;;3.78;;
51746;SDS011;37825;40.088;18.302;2022-08-03T09:43:25;8.50;;;4.25;;
51746;SDS011;37825;40.088;18.302;2022-08-03T09:46:01;8.70;;;3.50;;
51746;SDS011;37825;40.088;18.302;2022-08-03T09:48:30;2.67;;;2.08;;
51746;SDS011;37825;40.088;18.302;2022-08-03T09:51:02;2.50;;;2.13;;
51746;SDS011;37825;40.088;18.302;2022-08-03T09:53:30;3.53;;;2.58;;
51746;SDS011;37825;40.088;18.302;2022-08-03T09:56:00;5.30;;;3.42;;
51746;SDS011;37825;40.088;18.302;2022-08-03T09:58:29;4.50;;;3.20;;
51746;SDS011;37825;40.088;18.302;2022-08-03T10:01:02;5.45;;;2.40;;
51746;SDS011;37825;40.088;18.302;2022-08-03T10:03:33;5.80;;;4.78;;
51746;SDS011;37825;40.088;18.302;2022-08-03T10:06:15;8.27;;;3.63;;
51746;SDS011;37825;40.088;18.302;2022-08-03T10:08:45;2.55;;;2.15;;
51746;SDS011;37825;40.088;18.302;2022-08-03T10:11:28;3.47;;;2.38;;
51746;SDS011;37825;40.088;18.302;2022-08-03T10:13:56;4.53;;;4.13;;
51746;SDS011;37825;40.088;18.302;2022-08-03T10:16:25;4.43;;;2.90;;
51746;SDS011;37825;40.088;18.302;2022-08-03T10:18:54;3.10;;;2.20;;
51746;SDS011;37825;40.088;18.302;2022-08-03T10:21:23;3.67;;;2.05;;
51746;SDS011;37825;40.088;18.302;2022-08-03T10:23:53;3.95;;;2.33;;
51746;SDS011;37825;40.088;18.302;2022-08-03T10:26:21;5.75;;;2.05;;
51746;SDS011;37825;40.088;18.302;2022-08-03T10:28:52;6.32;;;1.83;;
51746;SDS011;37825;40.088;18.302;2022-08-03T10:31:23;3.00;;;1.98;;
51746;SDS011;37825;40.088;18.302;2022-08-03T10:33:52;3.28;;;1.80;;
51746;SDS011;37825;40.088;18.302;2022-08-03T10:36:24;3.88;;;2.15;;
51746;SDS011;37825;40.088;18.302;2022-08-03T10:38:54;5.97;;;1.98;;
51746;SDS011;37825;40.088;18.302;2022-08-03T10:41:24;4.05;;;1.55;;
51746;SDS011;37825;40.088;18.302;2022-08-03T10:43:55;2.05;;;1.30;;
51746;SDS011;37825;40.088;18.302;2022-08-03T10:46:26;1.90;;;1.55;;
51746;SDS011;37825;40.088;18.302;2022-08-03T10:48:55;2.92;;;1.95;;
51746;SDS011;37825;40.088;18.302;2022-08-03T10:51:24;13.80;;;2.50;;
51746;SDS011;37825;40.088;18.302;2022-08-03T10:53:59;3.92;;;1.92;;
51746;SDS011;37825;40.088;18.302;2022-08-03T11:00:04;2.97;;;1.45;;
51746;SDS011;37825;40.088;18.302;2022-08-03T11:02:07;4.20;;;1.42;;
51746;SDS011;37825;40.088;18.302;2022-08-03T11:04:36;3.05;;;1.83;;
51746;SDS011;37825;40.088;18.302;2022-08-03T11:07:17;2.95;;;1.33;;
51746;SDS011;37825;40.088;18.302;2022-08-03T11:12:20;3.72;;;1.55;;
51746;SDS011;37825;40.088;18.302;2022-08-03T11:14:49;4.68;;;1.30;;
51746;SDS011;37825;40.088;18.302;2022-08-03T11:17:17;1.55;;;1.10;;
51746;SDS011;37825;40.088;18.302;2022-08-03T11:19:49;1.38;;;0.88;;
51746;SDS011;37825;40.088;18.302;2022-08-03T11:22:17;4.75;;;1.52;;
51746;SDS011;37825;40.088;18.302;2022-08-03T11:27:20;2.03;;;1.10;;
51746;SDS011;37825;40.088;18.302;2022-08-03T11:30:05;1.58;;;1.10;;
51746;SDS011;37825;40.088;18.302;2022-08-03T11:40:31;1.52;;;0.95;;
51746;SDS011;37825;40.088;18.302;2022-08-03T11:43:01;2.63;;;1.15;;
51746;SDS011;37825;40.088;18.302;2022-08-03T11:45:30;2.42;;;0.82;;
51746;SDS011;37825;40.088;18.302;2022-08-03T11:48:01;3.97;;;0.90;;
51746;SDS011;37825;40.088;18.302;2022-08-03T11:50:36;2.05;;;1.20;;
51746;SDS011;37825;40.088;18.302;2022-08-03T11:53:04;2.92;;;1.40;;
51746;SDS011;37825;40.088;18.302;2022-08-03T11:55:34;1.60;;;1.15;;
51746;SDS011;37825;40.088;18.302;2022-08-03T11:58:03;2.22;;;1.10;;
51746;SDS011;37825;40.088;18.302;2022-08-03T12:00:31;4.40;;;1.40;;
51746;SDS011;37825;40.088;18.302;2022-08-03T12:03:04;1.60;;;1.00;;
51746;SDS011;37825;40.088;18.302;2022-08-03T12:05:33;1.55;;;0.82;;
51746;SDS011;37825;40.088;18.302;2022-08-03T12:08:02;2.92;;;1.08;;
51746;SDS011;37825;40.088;18.302;2022-08-03T12:10:32;1.15;;;1.02;;
51746;SDS011;37825;40.088;18.302;2022-08-03T12:13:01;5.72;;;0.93;;
51746;SDS011;37825;40.088;18.302;2022-08-03T12:15:31;1.33;;;1.08;;
51746;SDS011;37825;40.088;18.302;2022-08-03T12:18:09;1.60;;;1.20;;
51746;SDS011;37825;40.088;18.302;2022-08-03T12:20:39;2.33;;;0.95;;
51746;SDS011;37825;40.088;18.302;2022-08-03T12:23:08;2.45;;;0.93;;
51746;SDS011;37825;40.088;18.302;2022-08-03T12:25:37;1.58;;;0.70;;
51746;SDS011;37825;40.088;18.302;2022-08-03T12:28:07;3.35;;;1.10;;
51746;SDS011;37825;40.088;18.302;2022-08-03T12:30:37;1.33;;;0.77;;
51746;SDS011;37825;40.088;18.302;2022-08-03T12:35:41;1.85;;;1.13;;
51746;SDS011;37825;40.088;18.302;2022-08-03T12:38:10;3.67;;;1.33;;
51746;SDS011;37825;40.088;18.302;2022-08-03T12:40:39;2.30;;;2.00;;
51746;SDS011;37825;40.088;18.302;2022-08-03T12:43:13;4.22;;;1.00;;
51746;SDS011;37825;40.088;18.302;2022-08-03T12:45:42;1.85;;;0.88;;
51746;SDS011;37825;40.088;18.302;2022-08-03T12:48:10;3.03;;;0.95;;
51746;SDS011;37825;40.088;18.302;2022-08-03T12:50:38;2.90;;;1.33;;
51746;SDS011;37825;40.088;18.302;2022-08-03T12:53:08;3.13;;;0.90;;
51746;SDS011;37825;40.088;18.302;2022-08-03T12:55:36;3.73;;;1.10;;
51746;SDS011;37825;40.088;18.302;2022-08-03T12:58:06;1.73;;;1.15;;
51746;SDS011;37825;40.088;18.302;2022-08-03T13:00:38;1.60;;;1.50;;
51746;SDS011;37825;40.088;18.302;2022-08-03T13:03:06;1.17;;;0.88;;
51746;SDS011;37825;40.088;18.302;2022-08-03T13:05:53;2.88;;;1.20;;
51746;SDS011;37825;40.088;18.302;2022-08-03T13:08:24;3.70;;;1.70;;
51746;SDS011;37825;40.088;18.302;2022-08-03T13:10:52;2.55;;;1.15;;
51746;SDS011;37825;40.088;18.302;2022-08-03T13:13:38;1.42;;;1.02;;
51746;SDS011;37825;40.088;18.302;2022-08-03T13:16:07;2.05;;;1.30;;
51746;SDS011;37825;40.088;18.302;2022-08-03T13:18:36;2.00;;;1.10;;
51746;SDS011;37825;40.088;18.302;2022-08-03T13:21:04;1.20;;;0.90;;
51746;SDS011;37825;40.088;18.302;2022-08-03T13:23:32;2.15;;;1.05;;
51746;SDS011;37825;40.088;18.302;2022-08-03T13:26:00;1.58;;;1.00;;
51746;SDS011;37825;40.088;18.302;2022-08-03T13:28:29;1.83;;;1.10;;
51746;SDS011;37825;40.088;18.302;2022-08-03T13:30:58;1.77;;;1.17;;
51746;SDS011;37825;40.088;18.302;2022-08-03T13:33:26;1.05;;;0.95;;
51746;SDS011;37825;40.088;18.302;2022-08-03T13:35:55;1.15;;;0.88;;
51746;SDS011;37825;40.088;18.302;2022-08-03T13:38:24;4.28;;;1.55;;
51746;SDS011;37825;40.088;18.302;2022-08-03T13:40:52;2.15;;;0.73;;
51746;SDS011;37825;40.088;18.302;2022-08-03T13:43:21;1.17;;;0.90;;
51746;SDS011;37825;40.088;18.302;2022-08-03T13:45:49;1.73;;;1.15;;
51746;SDS011;37825;40.088;18.302;2022-08-03T13:48:20;2.30;;;1.10;;
51746;SDS011;37825;40.088;18.302;2022-08-03T13:50:48;1.65;;;1.05;;
51746;SDS011;37825;40.088;18.302;2022-08-03T13:53:17;2.60;;;1.10;;
51746;SDS011;37825;40.088;18.302;2022-08-03T13:55:45;1.35;;;1.10;;
51746;SDS011;37825;40.088;18.302;2022-08-03T13:58:13;1.63;;;0.95;;
51746;SDS011;37825;40.088;18.302;2022-08-03T14:00:42;2.30;;;0.80;;
51746;SDS011;37825;40.088;18.302;2022-08-03T14:03:10;1.50;;;1.02;;
51746;SDS011;37825;40.088;18.302;2022-08-03T14:05:40;1.85;;;1.10;;
51746;SDS011;37825;40.088;18.302;2022-08-03T14:08:09;0.90;;;0.50;;
51746;SDS011;37825;40.088;18.302;2022-08-03T14:10:38;1.23;;;1.02;;
51746;SDS011;37825;40.088;18.302;2022-08-03T14:13:07;2.25;;;0.98;;
51746;SDS011;37825;40.088;18.302;2022-08-03T14:15:36;1.42;;;0.90;;
51746;SDS011;37825;40.088;18.302;2022-08-03T14:18:05;3.80;;;0.85;;
51746;SDS011;37825;40.088;18.302;2022-08-03T14:20:34;2.65;;;0.98;;
51746;SDS011;37825;40.088;18.302;2022-08-03T14:23:02;3.38;;;1.10;;
51746;SDS011;37825;40.088;18.302;2022-08-03T14:25:31;2.72;;;1.20;;
51746;SDS011;37825;40.088;18.302;2022-08-03T14:27:59;1.55;;;1.25;;
51746;SDS011;37825;40.088;18.302;2022-08-03T14:30:27;2.70;;;1.20;;
51746;SDS011;37825;40.088;18.302;2022-08-03T14:32:56;2.85;;;1.30;;
51746;SDS011;37825;40.088;18.302;2022-08-03T14:35:26;2.28;;;1.00;;
51746;SDS011;37825;40.088;18.302;2022-08-03T14:37:55;1.25;;;1.15;;
51746;SDS011;37825;40.088;18.302;2022-08-03T14:40:23;1.95;;;0.82;;
51746;SDS011;37825;40.088;18.302;2022-08-03T14:42:52;1.92;;;1.05;;
51746;SDS011;37825;40.088;18.302;2022-08-03T14:45:21;2.97;;;1.00;;
51746;SDS011;37825;40.088;18.302;2022-08-03T14:47:49;2.28;;;1.13;;
51746;SDS011;37825;40.088;18.302;2022-08-03T14:50:18;2.65;;;1.23;;
51746;SDS011;37825;40.088;18.302;2022-08-03T14:52:48;2.35;;;1.27;;
51746;SDS011;37825;40.088;18.302;2022-08-03T14:55:16;2.47;;;1.30;;
51746;SDS011;37825;40.088;18.302;2022-08-03T14:57:45;2.10;;;1.10;;
51746;SDS011;37825;40.088;18.302;2022-08-03T15:00:13;2.58;;;1.45;;
51746;SDS011;37825;40.088;18.302;2022-08-03T15:02:44;3.05;;;1.20;;
51746;SDS011;37825;40.088;18.302;2022-08-03T15:05:12;2.70;;;1.55;;
51746;SDS011;37825;40.088;18.302;2022-08-03T15:07:41;1.88;;;1.20;;
51746;SDS011;37825;40.088;18.302;2022-08-03T15:10:10;4.07;;;1.40;;
51746;SDS011;37825;40.088;18.302;2022-08-03T15:12:38;2.35;;;1.27;;
51746;SDS011;37825;40.088;18.302;2022-08-03T15:15:06;1.58;;;0.93;;
51746;SDS011;37825;40.088;18.302;2022-08-03T15:17:35;4.88;;;1.05;;
51746;SDS011;37825;40.088;18.302;2022-08-03T15:20:03;1.63;;;1.33;;
51746;SDS011;37825;40.088;18.302;2022-08-03T15:22:32;1.08;;;0.90;;
51746;SDS011;37825;40.088;18.302;2022-08-03T15:25:02;4.07;;;0.80;;
51746;SDS011;37825;40.088;18.302;2022-08-03T15:27:30;6.82;;;1.10;;